createdAt,value
2022-11-22T00:00:57.625Z,100.00
2022-11-22T00:03:25.702Z,100.00
2022-11-22T00:05:55.145Z,100.00
2022-11-22T00:08:23.170Z,100.00
2022-11-22T00:10:51.418Z,100.00
2022-11-22T00:13:21.190Z,100.00
2022-11-22T00:16:00.116Z,100.00
2022-11-22T00:18:28.231Z,100.00
2022-11-22T00:20:58.011Z,100.00
2022-11-22T00:23:26.039Z,100.00
2022-11-22T00:25:54.137Z,100.00
2022-11-22T00:28:22.139Z,100.00
2022-11-22T00:30:50.206Z,100.00
2022-11-22T00:33:18.240Z,100.00
2022-11-22T00:35:46.592Z,100.00
2022-11-22T00:38:15.999Z,100.00
2022-11-22T00:40:44.917Z,100.00
2022-11-22T00:43:12.864Z,100.00
2022-11-22T00:45:42.337Z,100.00
2022-11-22T00:48:10.715Z,100.00
2022-11-22T00:50:38.691Z,100.00
2022-11-22T00:53:06.803Z,100.00
2022-11-22T00:55:36.433Z,100.00
2022-11-22T00:58:04.501Z,100.00
2022-11-22T01:00:32.741Z,100.00
2022-11-22T01:03:00.844Z,100.00
2022-11-22T01:05:28.981Z,100.00
2022-11-22T01:07:57.029Z,100.00
2022-11-22T01:10:25.342Z,100.00
2022-11-22T01:12:54.837Z,100.00
2022-11-22T01:15:23.054Z,100.00
2022-11-22T01:17:51.120Z,100.00
2022-11-22T01:20:19.404Z,100.00
2022-11-22T01:22:47.497Z,100.00
2022-11-22T01:25:15.729Z,100.00
2022-11-22T01:27:43.798Z,100.00
2022-11-22T01:30:14.230Z,100.00
2022-11-22T01:32:42.272Z,100.00
2022-11-22T01:35:10.917Z,100.00
2022-11-22T01:37:38.989Z,100.00
2022-11-22T01:40:08.298Z,100.00
2022-11-22T01:42:49.657Z,100.00
2022-11-22T01:45:40.452Z,100.00
2022-11-22T01:48:19.601Z,100.00
2022-11-22T01:50:50.724Z,100.00
2022-11-22T01:53:23.291Z,100.00
2022-11-22T01:55:53.866Z,100.00
2022-11-22T01:58:24.709Z,100.00
2022-11-22T02:00:55.245Z,100.00
2022-11-22T02:03:24.486Z,100.00
2022-11-22T02:05:53.167Z,100.00
2022-11-22T02:08:26.888Z,100.00
2022-11-22T02:10:57.570Z,100.00
2022-11-22T02:13:26.207Z,100.00
2022-11-22T02:15:56.001Z,100.00
2022-11-22T02:18:24.020Z,100.00
2022-11-22T02:20:51.989Z,100.00
2022-11-22T02:23:25.787Z,100.00
2022-11-22T02:25:57.170Z,100.00
2022-11-22T02:28:26.238Z,100.00
2022-11-22T02:30:54.192Z,100.00
2022-11-22T02:33:22.115Z,100.00
2022-11-22T02:35:50.334Z,100.00
2022-11-22T02:38:21.061Z,100.00
2022-11-22T02:40:54.686Z,100.00
2022-11-22T02:43:27.226Z,100.00
2022-11-22T02:45:55.255Z,100.00
2022-11-22T02:48:23.554Z,100.00
2022-11-22T02:50:51.549Z,100.00
2022-11-22T02:53:19.619Z,100.00
2022-11-22T02:55:47.642Z,100.00
2022-11-22T02:58:15.716Z,100.00
2022-11-22T03:00:45.198Z,100.00
2022-11-22T03:03:13.219Z,100.00
2022-11-22T03:05:41.252Z,100.00
2022-11-22T03:08:09.256Z,100.00
2022-11-22T03:10:37.303Z,100.00
2022-11-22T03:13:05.267Z,100.00
2022-11-22T03:15:33.302Z,100.00
2022-11-22T03:18:04.851Z,100.00
2022-11-22T03:20:34.714Z,100.00
2022-11-22T03:23:02.785Z,100.00
2022-11-22T03:25:30.859Z,100.00
2022-11-22T03:27:59.203Z,100.00
2022-11-22T03:30:27.772Z,100.00
2022-11-22T03:32:56.639Z,100.00
2022-11-22T03:35:26.036Z,100.00
2022-11-22T03:37:54.040Z,100.00
2022-11-22T03:40:22.075Z,100.00
2022-11-22T03:42:50.117Z,100.00
2022-11-22T03:45:18.160Z,100.00
2022-11-22T03:47:46.080Z,100.00
2022-11-22T03:50:14.142Z,100.00
2022-11-22T03:52:43.519Z,100.00
2022-11-22T03:55:11.653Z,100.00
2022-11-22T03:57:39.778Z,100.00
2022-11-22T04:00:09.265Z,100.00
2022-11-22T04:02:37.306Z,100.00
2022-11-22T04:05:05.903Z,100.00
2022-11-22T04:07:33.941Z,100.00
2022-11-22T04:10:03.436Z,100.00
2022-11-22T04:12:32.079Z,100.00
2022-11-22T04:15:08.133Z,100.00
2022-11-22T04:17:45.373Z,100.00
2022-11-22T04:20:34.982Z,100.00
2022-11-22T04:23:04.487Z,100.00
2022-11-22T04:25:35.165Z,100.00
2022-11-22T04:28:03.699Z,100.00
2022-11-22T04:30:45.690Z,100.00
2022-11-22T04:33:14.744Z,100.00
2022-11-22T04:35:44.042Z,100.00
2022-11-22T04:38:13.329Z,100.00
2022-11-22T04:40:43.279Z,100.00
2022-11-22T04:43:34.075Z,100.00
2022-11-22T04:46:03.049Z,100.00
2022-11-22T04:48:31.082Z,100.00
2022-11-22T04:51:16.385Z,100.00
2022-11-22T04:53:44.576Z,100.00
2022-11-22T04:56:14.176Z,100.00
2022-11-22T04:58:42.293Z,100.00
2022-11-22T05:01:10.587Z,100.00
2022-11-22T05:03:38.811Z,100.00
2022-11-22T05:06:07.275Z,100.00
2022-11-22T05:08:35.386Z,100.00
2022-11-22T05:11:03.336Z,100.00
2022-11-22T05:13:35.395Z,100.00
2022-11-22T05:16:05.122Z,100.00
2022-11-22T05:18:33.642Z,100.00
2022-11-22T05:21:06.411Z,100.00
2022-11-22T05:23:51.764Z,100.00
2022-11-22T05:26:19.521Z,100.00
2022-11-22T05:28:49.253Z,100.00
2022-11-22T05:31:23.098Z,100.00
2022-11-22T05:33:52.900Z,100.00
2022-11-22T05:36:21.262Z,100.00
2022-11-22T05:38:49.485Z,100.00
2022-11-22T05:41:18.137Z,100.00
2022-11-22T05:43:46.149Z,100.00
2022-11-22T05:46:22.552Z,100.00
2022-11-22T05:48:52.400Z,100.00
2022-11-22T05:51:21.789Z,100.00
2022-11-22T05:53:49.913Z,100.00
2022-11-22T05:56:19.686Z,100.00
2022-11-22T05:58:48.420Z,100.00
2022-11-22T06:01:20.645Z,100.00
2022-11-22T06:03:49.484Z,100.00
2022-11-22T06:06:17.846Z,100.00
2022-11-22T06:08:48.117Z,100.00
2022-11-22T06:11:18.613Z,100.00
2022-11-22T06:13:49.549Z,100.00
2022-11-22T06:16:18.919Z,100.00
2022-11-22T06:18:47.268Z,100.00
2022-11-22T06:21:17.501Z,100.00
2022-11-22T06:23:46.215Z,100.00
2022-11-22T06:26:16.547Z,100.00
2022-11-22T06:28:46.045Z,100.00
2022-11-22T06:31:15.689Z,100.00
2022-11-22T06:33:45.901Z,100.00
2022-11-22T06:36:15.771Z,100.00
2022-11-22T06:38:45.083Z,100.00
2022-11-22T06:41:15.103Z,100.00
2022-11-22T06:43:48.708Z,100.00
2022-11-22T06:46:17.960Z,100.00
2022-11-22T06:48:48.080Z,100.00
2022-11-22T06:51:18.024Z,100.00
2022-11-22T06:53:48.514Z,100.00
2022-11-22T06:56:18.965Z,100.00
2022-11-22T06:58:47.636Z,100.00
2022-11-22T07:01:17.219Z,100.00
2022-11-22T07:03:47.474Z,100.00
2022-11-22T07:06:17.235Z,100.00
2022-11-22T07:08:46.030Z,100.00
2022-11-22T07:11:16.298Z,100.00
2022-11-22T07:13:45.131Z,100.00
2022-11-22T07:16:14.668Z,100.00
2022-11-22T07:18:42.934Z,100.00
2022-11-22T07:21:13.928Z,100.00
2022-11-22T07:23:43.514Z,100.00
2022-11-22T07:26:12.311Z,100.00
2022-11-22T07:28:40.356Z,100.00
2022-11-22T07:31:10.031Z,100.00
2022-11-22T07:33:38.282Z,100.00
2022-11-22T07:36:07.030Z,100.00
2022-11-22T07:38:36.875Z,100.00
2022-11-22T07:41:05.420Z,100.00
2022-11-22T07:43:33.447Z,100.00
2022-11-22T07:46:01.587Z,100.00
2022-11-22T07:48:29.765Z,100.00
2022-11-22T07:50:57.770Z,100.00
2022-11-22T07:53:26.184Z,100.00
2022-11-22T07:55:55.761Z,100.00
2022-11-22T07:58:23.683Z,100.00
2022-11-22T08:00:51.628Z,100.00
2022-11-22T08:03:22.823Z,100.00
2022-11-22T08:06:00.377Z,100.00
2022-11-22T08:08:28.709Z,100.00
2022-11-22T08:10:58.177Z,100.00
2022-11-22T08:13:27.201Z,100.00
2022-11-22T08:15:59.581Z,100.00
2022-11-22T08:18:30.020Z,100.00
2022-11-22T08:21:04.889Z,100.00
2022-11-22T08:23:32.880Z,100.00
2022-11-22T08:26:02.413Z,100.00
2022-11-22T08:28:30.638Z,100.00
2022-11-22T08:31:03.863Z,100.00
2022-11-22T08:33:31.946Z,100.00
2022-11-22T08:35:59.970Z,100.00
2022-11-22T08:38:28.496Z,100.00
2022-11-22T08:40:56.939Z,100.00
2022-11-22T08:43:26.484Z,100.00
2022-11-22T08:45:57.103Z,100.00
2022-11-22T08:48:25.650Z,100.00
2022-11-22T08:50:54.648Z,100.00
2022-11-22T08:53:23.487Z,100.00
2022-11-22T08:55:51.757Z,100.00
2022-11-22T08:58:20.229Z,100.00
2022-11-22T09:00:49.686Z,100.00
2022-11-22T09:03:17.857Z,100.00
2022-11-22T09:08:36.404Z,100.00
2022-11-22T09:11:08.268Z,100.00
2022-11-22T09:13:37.019Z,100.00
2022-11-22T09:16:08.155Z,100.00
2022-11-22T09:18:36.284Z,100.00
2022-11-22T09:21:06.763Z,100.00
2022-11-22T09:23:35.167Z,100.00
2022-11-22T09:26:05.025Z,100.00
2022-11-22T09:28:33.296Z,100.00
2022-11-22T09:31:02.551Z,100.00
2022-11-22T09:33:35.375Z,100.00
2022-11-22T09:36:04.745Z,100.00
2022-11-22T09:38:33.478Z,100.00
2022-11-22T09:41:04.045Z,100.00
2022-11-22T09:43:44.586Z,100.00
2022-11-22T09:46:36.046Z,100.00
2022-11-22T09:49:22.974Z,100.00
2022-11-22T09:51:57.007Z,100.00
2022-11-22T09:54:29.380Z,100.00
2022-11-22T09:57:02.725Z,100.00
2022-11-22T09:59:35.127Z,100.00
2022-11-22T10:02:18.108Z,100.00
2022-11-22T10:04:56.014Z,100.00
2022-11-22T10:07:30.441Z,100.00
2022-11-22T10:10:05.737Z,100.00
2022-11-22T10:12:42.081Z,100.00
2022-11-22T10:15:20.613Z,100.00
2022-11-22T10:17:55.001Z,100.00
2022-11-22T10:20:26.847Z,100.00
2022-11-22T10:22:55.923Z,100.00
2022-11-22T10:25:35.370Z,100.00
2022-11-22T10:28:13.754Z,100.00
2022-11-22T10:30:49.758Z,100.00
2022-11-22T10:33:23.498Z,100.00
2022-11-22T10:36:09.586Z,100.00
2022-11-22T10:38:53.548Z,100.00
2022-11-22T10:41:35.596Z,100.00
2022-11-22T10:44:15.897Z,100.00
2022-11-22T10:46:56.710Z,100.00
2022-11-22T10:49:38.258Z,100.00
2022-11-22T10:52:17.867Z,100.00
2022-11-22T10:54:52.748Z,97.45
2022-11-22T10:57:32.524Z,95.61
2022-11-22T11:00:16.678Z,92.36
2022-11-22T11:03:10.323Z,92.19
2022-11-22T11:06:15.368Z,95.21
2022-11-22T11:09:12.302Z,93.75
2022-11-22T11:11:28.905Z,94.65
2022-11-22T11:14:01.667Z,95.44
2022-11-22T11:16:34.052Z,94.34
2022-11-22T11:19:12.921Z,92.75
2022-11-22T11:21:40.894Z,92.38
2022-11-22T11:24:15.164Z,91.73
2022-11-22T11:26:45.467Z,91.36
2022-11-22T11:29:45.119Z,90.79
2022-11-22T11:32:15.087Z,89.38
2022-11-22T11:34:52.372Z,90.96
2022-11-22T11:37:26.242Z,88.17
2022-11-22T11:39:55.645Z,86.35
2022-11-22T11:42:26.985Z,87.43
2022-11-22T11:44:55.921Z,84.36
2022-11-22T11:47:41.606Z,84.25
2022-11-22T11:50:23.705Z,83.17
2022-11-22T11:52:56.880Z,80.97
2022-11-22T11:55:31.496Z,82.89
2022-11-22T11:57:59.799Z,85.17
2022-11-22T12:00:36.817Z,85.54
2022-11-22T12:03:09.210Z,85.75
2022-11-22T12:05:37.383Z,86.61
2022-11-22T12:08:29.941Z,86.63
2022-11-22T12:11:04.237Z,85.84
2022-11-22T12:14:04.728Z,86.42
2022-11-22T12:16:31.288Z,87.48
2022-11-22T12:19:07.163Z,86.37
2022-11-22T12:21:44.694Z,84.31
2022-11-22T12:27:06.085Z,81.06
2022-11-22T12:29:36.352Z,75.07
2022-11-22T12:32:09.260Z,67.60
2022-11-22T12:34:44.840Z,64.52
2022-11-22T12:37:19.246Z,59.89
2022-11-22T12:39:49.093Z,56.08
2022-11-22T12:42:25.231Z,55.10
2022-11-22T12:44:57.724Z,56.59
2022-11-22T12:47:29.992Z,53.42
2022-11-22T12:50:04.216Z,48.59
2022-11-22T12:52:40.688Z,45.94
2022-11-22T12:55:17.567Z,45.03
2022-11-22T12:57:54.137Z,47.10
2022-11-22T13:00:23.831Z,49.91
2022-11-22T13:03:01.542Z,50.96
2022-11-22T13:05:32.997Z,52.42
2022-11-22T13:08:10.163Z,52.81
2022-11-22T13:10:42.056Z,52.00
2022-11-22T13:13:22.850Z,51.98
2022-11-22T13:15:54.433Z,52.65
2022-11-22T13:18:26.951Z,53.61
2022-11-22T13:21:03.228Z,55.09
2022-11-22T13:23:55.941Z,56.12
2022-11-22T13:26:33.556Z,57.79
2022-11-22T13:29:11.853Z,59.28
2022-11-22T13:31:41.201Z,60.83
2022-11-22T13:34:26.264Z,63.12
2022-11-22T13:36:57.880Z,66.05
2022-11-22T13:39:29.921Z,68.99
2022-11-22T13:42:06.366Z,71.79
2022-11-22T13:45:09.722Z,74.32
2022-11-22T13:47:44.199Z,75.40
2022-11-22T13:50:58.425Z,78.68
2022-11-22T13:53:31.978Z,81.28
2022-11-22T13:56:25.085Z,84.01
2022-11-22T13:59:04.558Z,84.98
2022-11-22T14:02:02.793Z,88.38
2022-11-22T14:04:44.529Z,89.75
2022-11-22T14:07:39.460Z,92.26
2022-11-22T14:10:26.996Z,93.80
2022-11-22T14:13:11.321Z,95.46
2022-11-22T14:15:51.463Z,97.07
2022-11-22T14:18:41.949Z,99.06
2022-11-22T14:21:16.102Z,99.36
2022-11-22T14:23:57.342Z,100.00
2022-11-22T14:26:34.621Z,100.00
2022-11-22T14:29:54.094Z,100.00
2022-11-22T14:32:23.822Z,100.00
2022-11-22T14:35:17.531Z,100.00
2022-11-22T14:37:48.727Z,100.00
2022-11-22T14:40:38.066Z,100.00
2022-11-22T14:43:21.646Z,100.00
2022-11-22T14:45:53.052Z,100.00
2022-11-22T14:48:22.868Z,100.00
2022-11-22T14:50:56.155Z,100.00
2022-11-22T14:53:37.290Z,100.00
2022-11-22T14:56:09.018Z,100.00
2022-11-22T14:58:43.344Z,100.00
2022-11-22T15:01:42.210Z,100.00
2022-11-22T15:09:10.282Z,100.00
2022-11-22T15:09:10.679Z,100.00
2022-11-22T15:11:11.158Z,100.00
2022-11-22T15:13:53.071Z,100.00
2022-11-22T15:57:26.515Z,100.00
2022-11-22T15:59:56.400Z,100.00
2022-11-22T16:02:27.803Z,100.00
2022-11-22T16:06:07.120Z,100.00
2022-11-22T16:07:49.380Z,100.00
2022-11-22T16:10:22.188Z,100.00
2022-11-22T16:12:50.833Z,100.00
2022-11-22T16:15:35.990Z,100.00
2022-11-22T16:18:14.400Z,100.00
2022-11-22T16:20:42.827Z,100.00
2022-11-22T16:23:21.769Z,100.00
2022-11-22T16:25:51.786Z,100.00
2022-11-22T16:28:38.140Z,100.00
2022-11-22T16:31:17.498Z,100.00
2022-11-22T16:33:47.286Z,100.00
2022-11-22T16:36:16.981Z,100.00
2022-11-22T16:38:45.482Z,100.00
2022-11-22T16:41:19.108Z,100.00
2022-11-22T16:43:49.232Z,100.00
2022-11-22T16:46:17.303Z,100.00
2022-11-22T16:48:46.841Z,100.00
2022-11-22T16:51:16.686Z,100.00
2022-11-22T16:53:46.348Z,100.00
2022-11-22T16:56:20.519Z,100.00
2022-11-22T16:58:50.151Z,100.00
2022-11-22T17:01:21.676Z,100.00
2022-11-22T17:03:53.389Z,100.00
2022-11-22T17:06:24.339Z,100.00
2022-11-22T17:08:54.497Z,100.00
2022-11-22T17:11:25.387Z,100.00
2022-11-22T17:13:53.501Z,100.00
2022-11-22T17:16:21.606Z,100.00
2022-11-22T17:18:51.277Z,100.00
2022-11-22T17:21:26.097Z,100.00
2022-11-22T17:23:55.048Z,100.00
2022-11-22T17:26:23.235Z,100.00
2022-11-22T17:28:51.336Z,100.00
2022-11-22T17:31:20.965Z,100.00
2022-11-22T17:33:52.959Z,100.00
2022-11-22T17:36:28.798Z,100.00
2022-11-22T17:38:57.343Z,100.00
2022-11-22T17:41:25.947Z,100.00
2022-11-22T17:43:54.431Z,100.00
2022-11-22T17:46:22.605Z,100.00
2022-11-22T17:48:56.529Z,100.00
2022-11-22T17:51:24.669Z,100.00
2022-11-22T17:53:53.060Z,100.00
2022-11-22T17:56:21.616Z,100.00
2022-11-22T17:58:49.706Z,100.00
2022-11-22T18:01:20.090Z,100.00
2022-11-22T18:03:48.996Z,100.00
2022-11-22T18:06:21.524Z,100.00
2022-11-22T18:08:49.900Z,100.00
2022-11-22T18:11:18.264Z,100.00
2022-11-22T18:13:46.377Z,100.00
2022-11-22T18:16:18.202Z,100.00
2022-11-22T18:19:02.340Z,100.00
2022-11-22T18:21:33.432Z,100.00
2022-11-22T18:24:02.484Z,100.00
2022-11-22T18:26:45.900Z,100.00
2022-11-22T18:29:41.196Z,100.00
2022-11-22T18:32:03.692Z,100.00
2022-11-22T18:34:32.106Z,100.00
2022-11-22T18:37:03.536Z,100.00
2022-11-22T18:39:34.716Z,100.00
2022-11-22T18:42:03.434Z,100.00
2022-11-22T18:44:31.486Z,100.00
2022-11-22T18:46:59.511Z,100.00
2022-11-22T18:49:27.544Z,100.00
2022-11-22T18:51:55.743Z,100.00
2022-11-22T18:54:25.717Z,100.00
2022-11-22T18:56:53.950Z,100.00
2022-11-22T18:59:21.949Z,100.00
2022-11-22T19:01:50.030Z,100.00
2022-11-22T19:04:18.252Z,100.00
2022-11-22T19:06:46.759Z,100.00
2022-11-22T19:09:14.998Z,100.00
2022-11-22T19:11:44.416Z,100.00
2022-11-22T19:14:12.447Z,100.00
2022-11-22T19:16:40.608Z,100.00
2022-11-22T19:19:11.906Z,100.00
2022-11-22T19:21:39.895Z,100.00
2022-11-22T19:24:08.271Z,100.00
2022-11-22T19:26:36.448Z,100.00
2022-11-22T19:29:05.880Z,100.00
2022-11-22T19:31:34.106Z,100.00
2022-11-22T19:34:02.083Z,100.00
2022-11-22T19:36:33.703Z,100.00
2022-11-22T19:39:03.759Z,100.00
2022-11-22T19:41:32.132Z,100.00
2022-11-22T19:44:00.657Z,100.00
2022-11-22T19:46:31.091Z,100.00
2022-11-22T19:49:01.239Z,100.00
2022-11-22T19:51:31.849Z,100.00
2022-11-22T19:54:02.246Z,100.00
2022-11-22T19:56:32.549Z,100.00
2022-11-22T19:59:02.899Z,100.00
2022-11-22T20:01:33.839Z,100.00
2022-11-22T20:04:04.330Z,100.00
2022-11-22T20:06:33.537Z,100.00
2022-11-22T20:09:02.776Z,100.00
2022-11-22T20:11:30.956Z,100.00
2022-11-22T20:13:59.034Z,100.00
2022-11-22T20:16:28.491Z,100.00
2022-11-22T20:18:59.196Z,100.00
2022-11-22T20:21:29.391Z,100.00
2022-11-22T20:23:57.849Z,100.00
2022-11-22T20:26:26.477Z,100.00
2022-11-22T20:28:59.051Z,100.00
2022-11-22T20:31:28.018Z,100.00
2022-11-22T20:33:57.569Z,100.00
2022-11-22T20:36:27.112Z,100.00
2022-11-22T20:38:55.625Z,100.00
2022-11-22T20:41:26.755Z,100.00
2022-11-22T20:43:55.509Z,100.00
2022-11-22T20:46:25.386Z,100.00
2022-11-22T20:49:02.610Z,100.00
2022-11-22T20:51:31.991Z,100.00
2022-11-22T20:54:00.059Z,100.00
2022-11-22T20:56:28.061Z,100.00
2022-11-22T20:58:56.128Z,100.00
2022-11-22T21:01:25.816Z,100.00
2022-11-22T21:03:54.530Z,100.00
2022-11-22T21:06:24.381Z,100.00
2022-11-22T21:08:53.822Z,100.00
2022-11-22T21:11:23.560Z,100.00
2022-11-22T21:13:52.365Z,100.00
2022-11-22T21:16:24.262Z,100.00
2022-11-22T21:18:53.625Z,100.00
2022-11-22T21:21:24.092Z,100.00
2022-11-22T21:23:55.102Z,100.00
2022-11-22T21:26:24.432Z,100.00
2022-11-22T21:28:53.677Z,100.00
2022-11-22T21:31:23.015Z,100.00
2022-11-22T21:33:51.325Z,100.00
2022-11-22T21:36:20.323Z,100.00
2022-11-22T21:38:48.468Z,100.00
2022-11-22T21:44:07.535Z,100.00
2022-11-22T21:46:35.527Z,100.00
2022-11-22T21:49:03.447Z,100.00
2022-11-22T21:51:32.150Z,100.00
2022-11-22T21:54:01.744Z,100.00
2022-11-22T21:56:31.647Z,100.00
2022-11-22T21:59:00.101Z,100.00
2022-11-22T22:01:28.881Z,100.00
2022-11-22T22:03:57.038Z,100.00
2022-11-22T22:06:25.307Z,100.00
2022-11-22T22:08:53.583Z,100.00
2022-11-22T22:11:21.672Z,100.00
2022-11-22T22:13:52.865Z,100.00
2022-11-22T22:16:23.386Z,100.00
2022-11-22T22:18:51.738Z,100.00
2022-11-22T22:21:20.635Z,100.00
2022-11-22T22:23:48.815Z,100.00
2022-11-22T22:26:18.452Z,100.00
2022-11-22T22:28:46.935Z,100.00
2022-11-22T22:31:22.205Z,100.00
2022-11-22T22:33:51.743Z,100.00
2022-11-22T22:36:20.075Z,100.00
2022-11-22T22:38:48.427Z,100.00
2022-11-22T22:41:17.371Z,100.00
2022-11-22T22:43:46.523Z,100.00
2022-11-22T22:46:18.520Z,100.00
2022-11-22T22:48:47.302Z,100.00
2022-11-22T22:51:17.036Z,100.00
2022-11-22T22:53:45.589Z,100.00
2022-11-22T22:56:15.018Z,100.00
2022-11-22T22:58:43.421Z,100.00
2022-11-22T23:01:14.516Z,100.00
2022-11-22T23:03:44.294Z,100.00
2022-11-22T23:06:13.216Z,100.00
2022-11-22T23:08:41.614Z,100.00
2022-11-22T23:11:10.898Z,100.00
2022-11-22T23:13:40.831Z,100.00
2022-11-22T23:16:10.651Z,100.00
2022-11-22T23:18:40.978Z,100.00
2022-11-22T23:21:14.277Z,100.00
2022-11-22T23:23:42.457Z,100.00
2022-11-22T23:26:13.595Z,100.00
2022-11-22T23:28:41.779Z,100.00
2022-11-22T23:31:11.587Z,100.00
2022-11-22T23:33:39.761Z,100.00
2022-11-22T23:36:11.890Z,100.00
2022-11-22T23:38:40.706Z,100.00
2022-11-22T23:41:09.986Z,100.00
2022-11-22T23:43:38.098Z,100.00
2022-11-22T23:46:06.305Z,100.00
2022-11-22T23:48:34.412Z,100.00
2022-11-22T23:51:04.868Z,100.00
2022-11-22T23:53:34.222Z,100.00
2022-11-22T23:56:06.455Z,100.00
2022-11-22T23:58:35.181Z,100.00
